createdAt,value
2022-08-23T00:01:25.687Z,5.33
2022-08-23T00:03:58.373Z,5.53
2022-08-23T00:06:26.879Z,4.97
2022-08-23T00:08:55.383Z,5.03
2022-08-23T00:11:30.016Z,4.63
2022-08-23T00:13:59.383Z,5.63
2022-08-23T00:16:29.809Z,4.50
2022-08-23T00:18:59.394Z,4.80
2022-08-23T00:21:29.290Z,4.93
2022-08-23T00:23:57.684Z,5.17
2022-08-23T00:26:26.525Z,5.30
2022-08-23T00:28:54.681Z,6.00
2022-08-23T00:31:22.831Z,5.53
2022-08-23T00:33:52.318Z,5.27
2022-08-23T00:36:20.500Z,6.90
2022-08-23T00:38:49.534Z,5.67
2022-08-23T00:41:17.825Z,5.90
2022-08-23T00:44:03.611Z,6.23
2022-08-23T00:47:00.682Z,5.20
2022-08-23T00:49:32.474Z,6.47
2022-08-23T00:52:07.121Z,6.20
2022-08-23T00:54:37.466Z,5.47
2022-08-23T00:57:12.300Z,6.13
2022-08-23T00:59:41.105Z,6.43
2022-08-23T01:02:10.554Z,7.83
2022-08-23T01:04:44.389Z,6.13
2022-08-23T01:07:20.420Z,7.17
2022-08-23T01:09:50.607Z,6.90
2022-08-23T01:12:29.575Z,7.97
2022-08-23T01:15:05.031Z,8.10
2022-08-23T01:17:37.521Z,8.27
2022-08-23T01:20:10.794Z,7.43
2022-08-23T01:22:43.785Z,7.67
2022-08-23T01:25:16.743Z,7.83
2022-08-23T01:27:46.651Z,7.77
2022-08-23T01:30:22.527Z,7.00
2022-08-23T01:32:54.661Z,6.20
2022-08-23T01:35:31.013Z,7.17
2022-08-23T01:37:59.397Z,6.37
2022-08-23T01:40:29.566Z,6.57
2022-08-23T01:42:58.017Z,6.63
2022-08-23T01:45:26.308Z,6.47
2022-08-23T01:47:55.253Z,6.80
2022-08-23T01:50:26.064Z,7.60
2022-08-23T01:52:55.078Z,7.07
2022-08-23T01:55:25.469Z,6.17
2022-08-23T01:57:59.353Z,6.40
2022-08-23T02:00:30.819Z,6.50
2022-08-23T02:02:59.404Z,6.60
2022-08-23T02:05:28.608Z,5.30
2022-08-23T02:07:56.882Z,5.77
2022-08-23T02:10:24.158Z,7.43
2022-08-23T02:12:52.718Z,6.90
2022-08-23T02:15:24.640Z,5.80
2022-08-23T02:17:55.537Z,6.10
2022-08-23T02:20:24.319Z,6.03
2022-08-23T02:22:52.483Z,6.30
2022-08-23T02:25:20.794Z,5.97
2022-08-23T02:27:48.962Z,6.40
2022-08-23T02:30:17.905Z,6.33
2022-08-23T02:32:47.528Z,6.27
2022-08-23T02:35:16.478Z,7.43
2022-08-23T02:37:44.698Z,5.67
2022-08-23T02:40:13.137Z,6.70
2022-08-23T02:42:42.384Z,7.00
2022-08-23T02:45:11.503Z,6.53
2022-08-23T02:47:48.044Z,6.27
2022-08-23T02:50:22.004Z,6.90
2022-08-23T02:52:50.761Z,6.83
2022-08-23T02:55:19.330Z,7.50
2022-08-23T02:57:48.252Z,7.43
2022-08-23T03:00:18.918Z,6.80
2022-08-23T03:02:48.973Z,6.73
2022-08-23T03:05:17.886Z,6.10
2022-08-23T03:07:46.458Z,6.70
2022-08-23T03:10:16.954Z,6.33
2022-08-23T03:12:51.525Z,7.27
2022-08-23T03:15:20.517Z,7.17
2022-08-23T03:17:51.176Z,7.30
2022-08-23T03:20:20.253Z,6.73
2022-08-23T03:22:54.403Z,8.23
2022-08-23T03:25:25.060Z,6.87
2022-08-23T03:28:04.656Z,7.17
2022-08-23T03:30:35.082Z,6.87
2022-08-23T03:33:06.061Z,7.63
2022-08-23T03:35:34.264Z,6.70
2022-08-23T03:38:03.826Z,6.50
2022-08-23T03:40:32.298Z,6.37
2022-08-23T03:43:02.018Z,8.03
2022-08-23T03:45:32.030Z,7.67
2022-08-23T03:48:00.392Z,8.20
2022-08-23T03:50:30.403Z,7.27
2022-08-23T03:52:58.716Z,6.63
2022-08-23T03:55:26.907Z,6.20
2022-08-23T03:57:55.358Z,7.50
2022-08-23T04:00:23.603Z,7.07
2022-08-23T04:02:54.094Z,7.97
2022-08-23T04:05:23.676Z,7.50
2022-08-23T04:07:53.802Z,7.80
2022-08-23T04:10:25.163Z,7.50
2022-08-23T04:12:56.075Z,7.17
2022-08-23T04:15:25.703Z,6.70
2022-08-23T04:17:53.903Z,6.80
2022-08-23T04:20:23.871Z,6.83
2022-08-23T04:22:58.611Z,7.23
2022-08-23T04:25:34.996Z,7.67
2022-08-23T04:28:05.731Z,6.80
2022-08-23T04:30:35.338Z,7.53
2022-08-23T04:33:10.749Z,6.93
2022-08-23T04:35:41.268Z,6.03
2022-08-23T04:38:24.335Z,8.00
2022-08-23T04:41:11.181Z,7.37
2022-08-23T04:43:40.287Z,7.40
2022-08-23T04:46:10.259Z,6.63
2022-08-23T04:48:38.587Z,7.60
2022-08-23T04:51:07.111Z,7.03
2022-08-23T04:53:40.462Z,6.73
2022-08-23T04:56:40.608Z,7.97
2022-08-23T04:59:13.185Z,7.27
2022-08-23T05:01:43.804Z,7.53
2022-08-23T05:04:16.374Z,7.20
2022-08-23T05:06:45.695Z,7.70
2022-08-23T05:09:20.006Z,6.30
2022-08-23T05:11:49.373Z,6.87
2022-08-23T05:14:18.335Z,7.40
2022-08-23T05:16:47.343Z,7.20
2022-08-23T05:19:16.138Z,6.30
2022-08-23T05:21:46.509Z,6.80
2022-08-23T05:24:17.411Z,6.60
2022-08-23T05:26:47.866Z,7.67
2022-08-23T05:29:16.484Z,7.00
2022-08-23T05:31:49.918Z,7.57
2022-08-23T05:34:22.458Z,7.43
2022-08-23T05:36:56.466Z,8.10
2022-08-23T05:39:41.028Z,7.90
2022-08-23T05:42:13.313Z,7.50
2022-08-23T05:44:42.170Z,6.80
2022-08-23T05:47:15.578Z,7.67
2022-08-23T05:50:02.754Z,6.67
2022-08-23T05:52:35.502Z,7.03
2022-08-23T05:55:06.043Z,6.97
2022-08-23T05:58:00.425Z,7.13
2022-08-23T06:00:37.896Z,7.47
2022-08-23T06:03:09.194Z,6.90
2022-08-23T06:05:41.230Z,6.40
2022-08-23T06:08:09.973Z,6.27
2022-08-23T06:10:42.324Z,6.93
2022-08-23T06:13:28.262Z,6.43
2022-08-23T06:15:57.845Z,5.77
2022-08-23T06:18:27.081Z,6.00
2022-08-23T06:21:03.891Z,5.70
2022-08-23T06:23:43.249Z,5.93
2022-08-23T06:26:14.177Z,5.57
2022-08-23T06:28:50.216Z,6.63
2022-08-23T06:31:41.746Z,5.40
2022-08-23T06:34:18.292Z,5.63
2022-08-23T06:37:11.383Z,5.50
2022-08-23T06:39:59.822Z,4.60
2022-08-23T06:42:41.187Z,5.50
2022-08-23T06:45:11.445Z,5.90
2022-08-23T06:47:43.635Z,5.40
2022-08-23T06:50:12.000Z,5.17
2022-08-23T06:53:12.566Z,5.70
2022-08-23T06:55:50.346Z,5.10
2022-08-23T06:58:25.436Z,5.70
2022-08-23T07:01:28.889Z,4.60
2022-08-23T07:04:21.203Z,4.97
2022-08-23T07:06:52.218Z,4.90
2022-08-23T07:09:20.504Z,4.90
2022-08-23T07:11:48.875Z,4.87
2022-08-23T07:14:20.963Z,4.83
2022-08-23T07:16:52.266Z,4.40
2022-08-23T07:19:25.737Z,4.90
2022-08-23T07:21:58.204Z,4.00
2022-08-23T07:24:32.719Z,4.80
2022-08-23T07:27:06.782Z,3.60
2022-08-23T07:29:39.585Z,4.30
2022-08-23T07:32:08.674Z,4.67
2022-08-23T07:34:37.979Z,4.20
2022-08-23T07:37:11.440Z,4.53
2022-08-23T07:39:45.083Z,5.40
2022-08-23T07:42:23.306Z,3.90
2022-08-23T07:44:55.787Z,3.70
2022-08-23T07:47:28.505Z,3.60
2022-08-23T07:49:58.190Z,3.77
2022-08-23T07:52:27.030Z,3.57
2022-08-23T07:54:55.591Z,3.10
2022-08-23T07:57:48.756Z,4.17
2022-08-23T08:00:37.637Z,3.30
2022-08-23T08:03:28.416Z,3.70
2022-08-23T08:06:09.982Z,3.83
2022-08-23T08:08:38.240Z,3.47
2022-08-23T08:11:06.846Z,3.67
2022-08-23T08:13:35.490Z,3.47
2022-08-23T08:16:05.796Z,4.30
2022-08-23T08:18:36.495Z,3.30
2022-08-23T08:21:23.891Z,3.70
2022-08-23T08:24:04.599Z,3.77
2022-08-23T08:26:48.498Z,3.83
2022-08-23T08:29:17.495Z,3.23
2022-08-23T08:31:51.369Z,3.63
2022-08-23T08:34:23.068Z,3.40
2022-08-23T08:36:53.758Z,2.70
2022-08-23T08:39:26.773Z,3.63
2022-08-23T08:42:10.795Z,3.43
2022-08-23T08:44:46.919Z,3.53
2022-08-23T08:47:27.737Z,3.90
2022-08-23T08:50:07.178Z,2.77
2022-08-23T08:52:41.771Z,3.00
2022-08-23T08:55:22.751Z,4.00
2022-08-23T08:57:54.984Z,3.97
2022-08-23T09:00:27.491Z,3.50
2022-08-23T09:03:00.860Z,3.67
2022-08-23T09:05:34.366Z,2.77
2022-08-23T09:08:13.553Z,3.43
2022-08-23T09:11:04.487Z,3.17
2022-08-23T09:13:53.675Z,3.60
2022-08-23T09:16:32.765Z,2.87
2022-08-23T09:19:03.843Z,2.83
2022-08-23T09:21:40.916Z,3.20
2022-08-23T09:24:09.704Z,3.90
2022-08-23T09:26:52.126Z,3.80
2022-08-23T09:29:24.128Z,3.20
2022-08-23T09:31:55.792Z,3.00
2022-08-23T09:34:43.654Z,2.43
2022-08-23T09:37:18.657Z,3.60
2022-08-23T09:39:50.610Z,3.00
2022-08-23T09:42:31.738Z,3.20
2022-08-23T09:45:01.098Z,3.00
2022-08-23T09:47:34.767Z,2.60
2022-08-23T09:50:18.845Z,3.73
2022-08-23T09:52:49.114Z,3.27
2022-08-23T09:55:27.691Z,2.77
2022-08-23T09:57:56.067Z,3.20
2022-08-23T10:00:27.788Z,3.13
2022-08-23T10:03:22.451Z,3.20
2022-08-23T10:05:55.011Z,3.67
2022-08-23T10:08:27.405Z,4.20
2022-08-23T10:11:02.593Z,3.83
2022-08-23T10:13:34.076Z,3.40
2022-08-23T10:16:14.299Z,3.30
2022-08-23T10:19:04.779Z,3.00
2022-08-23T10:21:42.103Z,3.40
2022-08-23T10:24:20.879Z,2.90
2022-08-23T10:27:04.672Z,2.37
2022-08-23T10:29:38.233Z,2.30
2022-08-23T10:32:21.445Z,2.30
2022-08-23T10:35:22.710Z,1.67
2022-08-23T10:38:04.015Z,1.80
2022-08-23T10:40:40.198Z,1.50
2022-08-23T10:43:16.600Z,2.00
2022-08-23T10:45:47.941Z,1.40
2022-08-23T10:48:31.773Z,1.67
2022-08-23T10:51:04.142Z,1.30
2022-08-23T10:53:46.077Z,1.50
2022-08-23T10:56:19.198Z,1.37
2022-08-23T10:58:57.365Z,1.80
2022-08-23T11:01:30.207Z,1.60
2022-08-23T11:04:03.949Z,1.60
2022-08-23T11:06:47.271Z,3.20
2022-08-23T11:09:51.995Z,1.30
2022-08-23T11:12:29.956Z,2.30
2022-08-23T11:15:11.314Z,1.40
2022-08-23T11:17:56.128Z,1.43
2022-08-23T11:21:00.864Z,1.57
2022-08-23T11:23:44.776Z,1.90
2022-08-23T11:27:07.408Z,1.20
2022-08-23T11:29:43.776Z,1.20
2022-08-23T11:32:39.494Z,1.73
2022-08-23T11:35:13.575Z,1.83
2022-08-23T11:37:55.167Z,2.00
2022-08-23T11:41:07.602Z,1.53
2022-08-23T11:43:38.925Z,1.80
2022-08-23T11:46:34.726Z,1.60
2022-08-23T11:49:53.563Z,1.67
2022-08-23T11:52:35.387Z,2.30
2022-08-23T11:55:24.503Z,1.83
2022-08-23T11:58:12.160Z,1.90
2022-08-23T12:00:55.881Z,1.40
2022-08-23T12:03:33.556Z,1.20
2022-08-23T12:06:13.758Z,1.50
2022-08-23T12:08:55.838Z,1.60
2022-08-23T12:11:25.827Z,2.03
2022-08-23T12:14:22.420Z,1.20
2022-08-23T12:16:51.248Z,2.00
2022-08-23T12:19:39.951Z,1.83
2022-08-23T12:22:12.410Z,1.30
2022-08-23T12:24:44.922Z,2.70
2022-08-23T12:27:28.889Z,1.50
2022-08-23T12:30:03.667Z,1.40
2022-08-23T12:32:42.943Z,1.77
2022-08-23T12:35:26.571Z,1.77
2022-08-23T12:38:02.503Z,2.27
2022-08-23T12:40:34.964Z,1.40
2022-08-23T12:43:06.131Z,1.43
2022-08-23T12:45:41.359Z,1.70
2022-08-23T12:48:13.834Z,1.37
2022-08-23T12:50:43.757Z,1.87
2022-08-23T12:53:14.506Z,1.53
2022-08-23T12:55:46.819Z,1.33
2022-08-23T12:58:16.185Z,1.60
2022-08-23T13:00:55.662Z,1.60
2022-08-23T13:03:26.959Z,1.50
2022-08-23T13:05:58.382Z,1.90
2022-08-23T13:08:34.754Z,1.77
2022-08-23T13:11:07.739Z,1.50
2022-08-23T13:13:40.294Z,1.20
2022-08-23T13:16:27.303Z,1.60
2022-08-23T13:19:17.618Z,1.47
2022-08-23T13:21:47.300Z,1.83
2022-08-23T13:24:37.940Z,1.13
2022-08-23T13:27:21.854Z,1.30
2022-08-23T13:29:55.373Z,1.30
2022-08-23T13:32:30.322Z,2.53
2022-08-23T13:35:24.071Z,1.43
2022-08-23T13:37:57.985Z,1.53
2022-08-23T13:40:28.861Z,1.63
2022-08-23T13:43:00.518Z,1.60
2022-08-23T13:45:31.463Z,1.77
2022-08-23T13:48:04.043Z,1.70
2022-08-23T13:50:34.923Z,1.27
2022-08-23T13:53:20.660Z,1.80
2022-08-23T13:55:52.165Z,3.23
2022-08-23T13:58:28.941Z,1.70
2022-08-23T14:00:58.858Z,1.57
2022-08-23T14:03:28.663Z,1.77
2022-08-23T14:05:57.000Z,1.57
2022-08-23T14:08:26.603Z,2.10
2022-08-23T14:10:54.891Z,2.00
2022-08-23T14:13:28.496Z,1.63
2022-08-23T14:21:38.094Z,1.87
2022-08-23T14:24:08.539Z,1.70
2022-08-23T14:26:36.742Z,2.13
2022-08-23T14:29:05.391Z,1.50
2022-08-23T14:31:34.043Z,1.80
2022-08-23T14:34:02.479Z,2.50
2022-08-23T14:36:30.864Z,1.53
2022-08-23T14:38:59.298Z,1.80
2022-08-23T14:41:30.182Z,1.40
2022-08-23T14:43:58.393Z,1.77
2022-08-23T14:46:26.960Z,1.70
2022-08-23T14:48:55.139Z,2.60
2022-08-23T14:51:26.951Z,2.00
2022-08-23T14:53:55.808Z,1.90
2022-08-23T14:56:24.120Z,1.20
2022-08-23T14:58:53.759Z,1.40
2022-08-23T15:01:22.612Z,1.63
2022-08-23T15:03:51.134Z,1.73
2022-08-23T15:06:21.801Z,2.00
2022-08-23T15:08:50.432Z,1.50
2022-08-23T15:14:08.170Z,1.53
2022-08-23T15:16:37.082Z,2.20
2022-08-23T15:19:06.545Z,1.63
2022-08-23T15:21:34.779Z,1.60
2022-08-23T15:24:02.937Z,1.23
2022-08-23T15:26:32.439Z,1.70
2022-08-23T15:29:01.783Z,1.97
2022-08-23T15:31:31.333Z,2.00
2022-08-23T15:34:00.090Z,1.37
2022-08-23T15:36:28.878Z,1.90
2022-08-23T15:38:57.043Z,1.77
2022-08-23T15:41:25.340Z,1.23
2022-08-23T15:43:53.595Z,1.40
2022-08-23T15:46:24.127Z,1.20
2022-08-23T15:48:57.076Z,1.43
2022-08-23T15:51:25.953Z,1.43
2022-08-23T15:53:54.321Z,1.60
2022-08-23T15:56:32.488Z,1.53
2022-08-23T15:59:01.102Z,1.33
2022-08-23T16:01:33.570Z,1.57
2022-08-23T16:04:03.587Z,1.43
2022-08-23T16:06:36.244Z,1.73
2022-08-23T16:09:06.350Z,1.30
2022-08-23T16:11:34.549Z,1.83
2022-08-23T16:14:02.951Z,1.43
2022-08-23T16:16:37.562Z,1.60
2022-08-23T16:19:08.153Z,1.40
2022-08-23T16:21:38.762Z,1.40
2022-08-23T16:24:08.458Z,1.70
2022-08-23T16:26:45.384Z,2.40
2022-08-23T16:29:17.165Z,2.50
2022-08-23T16:31:46.065Z,1.67
2022-08-23T16:34:18.458Z,1.77
2022-08-23T16:36:48.995Z,2.10
2022-08-23T16:39:17.749Z,2.00
2022-08-23T16:41:46.399Z,2.60
2022-08-23T16:44:14.659Z,2.00
2022-08-23T16:46:44.033Z,2.27
2022-08-23T16:49:13.164Z,1.53
2022-08-23T16:51:42.711Z,2.30
2022-08-23T16:54:11.003Z,2.53
2022-08-23T16:56:40.921Z,2.40
2022-08-23T16:59:11.451Z,2.40
2022-08-23T17:01:48.746Z,2.50
2022-08-23T17:04:18.445Z,2.30
2022-08-23T17:06:48.463Z,2.30
2022-08-23T17:09:16.958Z,3.00
2022-08-23T17:11:45.610Z,2.63
2022-08-23T17:14:14.495Z,3.23
2022-08-23T17:16:43.971Z,2.70
2022-08-23T17:19:12.959Z,2.67
2022-08-23T17:21:42.466Z,2.63
2022-08-23T17:24:11.962Z,2.60
2022-08-23T17:26:40.604Z,2.80
2022-08-23T17:29:09.438Z,2.37
2022-08-23T17:31:38.285Z,3.20
2022-08-23T17:34:07.198Z,2.80
2022-08-23T17:36:39.782Z,3.23
2022-08-23T17:39:11.360Z,3.53
2022-08-23T17:41:45.197Z,3.20
2022-08-23T17:44:14.426Z,3.67
2022-08-23T17:46:45.267Z,4.43
2022-08-23T17:49:15.340Z,3.30
2022-08-23T17:51:43.530Z,4.37
2022-08-23T17:54:15.819Z,2.80
2022-08-23T17:56:50.135Z,3.80
2022-08-23T17:59:19.399Z,3.50
2022-08-23T18:01:47.635Z,3.30
2022-08-23T18:04:15.952Z,3.47
2022-08-23T18:06:44.710Z,2.83
2022-08-23T18:09:12.963Z,2.77
2022-08-23T18:11:41.788Z,3.07
2022-08-23T18:14:12.111Z,3.07
2022-08-23T18:16:40.383Z,2.37
2022-08-23T18:19:13.366Z,3.03
2022-08-23T18:21:43.663Z,3.70
2022-08-23T18:24:12.133Z,3.27
2022-08-23T18:26:58.943Z,2.83
2022-08-23T18:29:32.161Z,3.40
2022-08-23T18:32:00.735Z,2.63
2022-08-23T18:34:29.450Z,3.37
2022-08-23T18:36:59.367Z,3.00
2022-08-23T18:39:31.950Z,3.30
2022-08-23T18:42:00.895Z,2.67
2022-08-23T18:44:30.620Z,3.20
2022-08-23T18:47:01.786Z,3.27
2022-08-23T18:49:30.540Z,3.23
2022-08-23T18:51:59.143Z,3.00
2022-08-23T18:54:31.807Z,3.40
2022-08-23T18:57:02.314Z,3.97
2022-08-23T18:59:31.899Z,3.03
2022-08-23T19:02:00.185Z,3.47
2022-08-23T19:04:30.077Z,3.60
2022-08-23T19:06:58.354Z,2.90
2022-08-23T19:09:26.565Z,3.00
2022-08-23T19:11:54.898Z,3.77
2022-08-23T19:14:23.110Z,3.30
2022-08-23T19:16:52.648Z,3.10
2022-08-23T19:19:20.876Z,3.97
2022-08-23T19:21:50.175Z,4.27
2022-08-23T19:24:18.447Z,3.53
2022-08-23T19:26:48.867Z,3.47
2022-08-23T19:29:18.637Z,3.77
2022-08-23T19:31:48.245Z,4.00
2022-08-23T19:34:19.696Z,4.00
2022-08-23T19:36:56.710Z,3.00
2022-08-23T19:39:29.829Z,3.63
2022-08-23T19:41:58.129Z,3.70
2022-08-23T19:44:26.616Z,3.90
2022-08-23T19:46:56.224Z,4.20
2022-08-23T19:49:25.735Z,3.50
2022-08-23T19:51:54.015Z,3.63
2022-08-23T19:54:22.235Z,4.00
2022-08-23T19:56:58.040Z,4.03
2022-08-23T19:59:29.446Z,4.50
2022-08-23T20:01:59.269Z,3.63
2022-08-23T20:04:31.595Z,4.30
2022-08-23T20:07:01.901Z,4.27
2022-08-23T20:09:31.694Z,3.60
2022-08-23T20:12:00.977Z,4.40
2022-08-23T20:14:33.027Z,4.20
2022-08-23T20:17:03.471Z,3.93
2022-08-23T20:19:33.009Z,4.50
2022-08-23T20:22:16.383Z,3.93
2022-08-23T20:24:51.475Z,3.97
2022-08-23T20:27:28.879Z,3.70
2022-08-23T20:30:00.001Z,4.53
2022-08-23T20:32:28.546Z,4.40
2022-08-23T20:34:58.069Z,4.40
2022-08-23T20:37:26.330Z,4.20
2022-08-23T20:39:55.824Z,3.73
2022-08-23T20:42:24.579Z,4.73
2022-08-23T20:44:52.818Z,5.03
2022-08-23T20:47:21.108Z,4.30
2022-08-23T20:49:49.330Z,4.60
2022-08-23T20:52:18.962Z,5.27
2022-08-23T20:54:47.233Z,4.90
2022-08-23T20:57:15.522Z,4.47
2022-08-23T20:59:44.929Z,4.30
2022-08-23T21:02:14.055Z,4.47
2022-08-23T21:04:42.337Z,4.70
2022-08-23T21:07:10.527Z,4.20
2022-08-23T21:09:40.321Z,5.40
2022-08-23T21:12:08.894Z,4.60
2022-08-23T21:14:37.067Z,4.97
2022-08-23T21:17:05.382Z,5.20
2022-08-23T21:19:33.578Z,5.07
2022-08-23T21:22:01.830Z,4.70
2022-08-23T21:24:30.095Z,5.13
2022-08-23T21:26:59.626Z,5.10
2022-08-23T21:29:27.840Z,5.97
2022-08-23T21:31:56.027Z,5.20
2022-08-23T21:34:24.323Z,4.90
2022-08-23T21:36:52.531Z,4.80
2022-08-23T21:39:20.899Z,4.93
2022-08-23T21:41:49.332Z,4.43
2022-08-23T21:44:20.963Z,5.60
2022-08-23T21:46:49.544Z,5.30
2022-08-23T21:49:18.427Z,5.20
2022-08-23T21:51:47.088Z,6.43
2022-08-23T21:54:17.653Z,5.50
2022-08-23T21:56:46.803Z,5.80
2022-08-23T21:59:18.295Z,5.13
2022-08-23T22:01:47.887Z,5.10
2022-08-23T22:04:17.161Z,5.53
2022-08-23T22:06:47.441Z,5.30
2022-08-23T22:09:18.360Z,7.00
2022-08-23T22:11:48.767Z,5.30
2022-08-23T22:14:20.104Z,5.83
2022-08-23T22:16:55.018Z,5.43
2022-08-23T22:19:24.366Z,5.53
2022-08-23T22:21:53.303Z,4.60
2022-08-23T22:24:25.983Z,5.17
2022-08-23T22:26:55.622Z,4.70
2022-08-23T22:29:24.379Z,5.30
2022-08-23T22:31:54.199Z,5.77
2022-08-23T22:34:22.392Z,5.53
2022-08-23T22:36:51.643Z,5.57
2022-08-23T22:39:21.579Z,5.67
2022-08-23T22:41:50.595Z,5.07
2022-08-23T22:44:19.391Z,6.90
2022-08-23T22:46:47.647Z,7.20
2022-08-23T22:49:17.365Z,6.70
2022-08-23T22:51:45.590Z,6.60
2022-08-23T22:54:14.881Z,7.40
2022-08-23T22:56:47.351Z,7.40
2022-08-23T22:59:17.038Z,7.10
2022-08-23T23:01:48.841Z,6.57
2022-08-23T23:04:20.670Z,7.77
2022-08-23T23:06:49.338Z,6.03
2022-08-23T23:09:17.831Z,7.27
2022-08-23T23:11:47.214Z,5.90
2022-08-23T23:14:18.243Z,7.00
2022-08-23T23:16:49.175Z,7.23
2022-08-23T23:19:36.363Z,6.33
2022-08-23T23:22:05.847Z,6.60
2022-08-23T23:24:37.156Z,6.63
2022-08-23T23:27:06.327Z,7.53
2022-08-23T23:29:36.517Z,6.17
2022-08-23T23:32:05.603Z,6.60
2022-08-23T23:34:36.460Z,6.23
2022-08-23T23:37:04.943Z,7.10
2022-08-23T23:39:33.231Z,5.43
2022-08-23T23:42:01.659Z,6.47
2022-08-23T23:44:31.560Z,6.00
2022-08-23T23:47:01.272Z,6.30
2022-08-23T23:49:32.506Z,5.40
2022-08-23T23:52:04.703Z,5.57
2022-08-23T23:54:33.962Z,5.90
2022-08-23T23:57:02.359Z,5.50
2022-08-23T23:59:30.555Z,5.73
